createdAt,value
2019-05-29T00:01:00.925Z,67.03
2019-05-29T00:03:33.820Z,66.26
2019-05-29T00:06:06.269Z,66.21
2019-05-29T00:08:38.642Z,66.20
2019-05-29T00:11:12.171Z,65.91
2019-05-29T00:13:44.607Z,65.81
2019-05-29T00:16:16.775Z,65.91
2019-05-29T00:18:49.357Z,68.39
2019-05-29T00:21:21.623Z,69.67
2019-05-29T00:23:54.098Z,69.51
2019-05-29T00:26:26.775Z,70.83
2019-05-29T00:28:59.042Z,71.83
2019-05-29T00:31:31.831Z,72.36
2019-05-29T00:34:04.510Z,72.19
2019-05-29T00:36:36.792Z,72.20
2019-05-29T00:39:10.555Z,72.25
2019-05-29T00:41:42.848Z,72.26
2019-05-29T00:44:15.428Z,72.44
2019-05-29T00:46:47.493Z,73.13
2019-05-29T00:49:19.970Z,73.23
2019-05-29T00:51:52.543Z,73.01
2019-05-29T00:54:25.246Z,73.22
2019-05-29T00:56:57.695Z,72.42
2019-05-29T00:59:30.270Z,72.25
2019-05-29T01:02:03.263Z,72.82
2019-05-29T01:04:36.247Z,73.08
2019-05-29T01:07:08.623Z,72.61
2019-05-29T01:09:40.987Z,73.28
2019-05-29T01:12:13.462Z,73.10
2019-05-29T01:14:50.250Z,73.11
2019-05-29T01:17:19.866Z,73.30
2019-05-29T01:19:52.136Z,74.53
2019-05-29T01:22:24.381Z,74.82
2019-05-29T01:24:56.657Z,75.69
2019-05-29T01:27:29.253Z,75.64
2019-05-29T01:30:01.599Z,75.84
2019-05-29T01:32:35.510Z,75.74
2019-05-29T01:35:07.995Z,75.96
2019-05-29T01:37:40.051Z,75.79
2019-05-29T01:40:21.134Z,76.43
2019-05-29T01:42:49.927Z,76.58
2019-05-29T01:45:21.587Z,76.08
2019-05-29T01:47:54.662Z,76.49
2019-05-29T01:50:27.945Z,77.26
2019-05-29T01:53:00.325Z,77.98
2019-05-29T01:55:33.203Z,77.72
2019-05-29T01:58:05.573Z,77.66
2019-05-29T02:00:37.781Z,78.27
2019-05-29T02:03:10.762Z,77.28
2019-05-29T02:05:43.105Z,76.98
2019-05-29T02:08:15.996Z,76.88
2019-05-29T02:10:48.356Z,77.13
2019-05-29T02:13:21.428Z,77.29
2019-05-29T02:15:53.919Z,77.65
2019-05-29T02:18:27.032Z,77.45
2019-05-29T02:20:59.489Z,77.17
2019-05-29T02:23:31.853Z,77.17
2019-05-29T02:26:04.330Z,76.51
2019-05-29T02:28:36.598Z,76.80
2019-05-29T02:31:09.126Z,76.79
2019-05-29T02:33:41.856Z,77.09
2019-05-29T02:36:14.437Z,76.35
2019-05-29T02:38:46.808Z,75.75
2019-05-29T02:41:21.142Z,76.03
2019-05-29T02:43:53.709Z,74.76
2019-05-29T02:46:28.112Z,73.92
2019-05-29T02:49:00.185Z,74.28
2019-05-29T02:51:33.887Z,72.98
2019-05-29T02:54:06.383Z,72.89
2019-05-29T02:56:42.299Z,71.39
2019-05-29T02:59:12.336Z,71.63
2019-05-29T03:01:45.843Z,70.47
2019-05-29T03:04:18.128Z,69.99
2019-05-29T03:06:50.679Z,69.10
2019-05-29T03:09:24.709Z,68.93
2019-05-29T03:12:00.223Z,67.97
2019-05-29T03:14:32.304Z,65.17
2019-05-29T03:17:05.596Z,64.09
2019-05-29T03:19:38.312Z,63.58
2019-05-29T03:22:10.944Z,63.77
2019-05-29T03:24:43.213Z,63.78
2019-05-29T03:27:15.722Z,63.10
2019-05-29T03:29:48.193Z,63.38
2019-05-29T03:32:20.946Z,66.86
2019-05-29T03:34:53.551Z,65.84
2019-05-29T03:37:26.297Z,65.83
2019-05-29T03:39:58.779Z,65.41
2019-05-29T03:42:32.589Z,65.52
2019-05-29T03:45:06.185Z,65.85
2019-05-29T03:47:38.462Z,64.74
2019-05-29T03:50:15.450Z,66.31
2019-05-29T03:52:45.544Z,66.39
2019-05-29T03:55:18.081Z,66.21
2019-05-29T03:57:50.524Z,66.77
2019-05-29T04:00:23.283Z,67.37
2019-05-29T04:02:56.018Z,66.99
2019-05-29T04:05:29.125Z,67.55
2019-05-29T04:08:01.555Z,68.77
2019-05-29T04:10:37.487Z,68.85
2019-05-29T04:13:09.450Z,67.98
2019-05-29T04:15:42.914Z,68.89
2019-05-29T04:18:19.499Z,67.98
2019-05-29T04:20:52.602Z,67.67
2019-05-29T04:23:27.800Z,66.94
2019-05-29T04:26:02.157Z,67.45
2019-05-29T04:28:36.730Z,67.04
2019-05-29T04:31:08.777Z,66.14
2019-05-29T04:33:41.123Z,63.91
2019-05-29T04:36:13.690Z,63.47
2019-05-29T04:38:46.173Z,62.43
2019-05-29T04:41:18.647Z,61.50
2019-05-29T04:43:51.014Z,60.68
2019-05-29T04:46:23.284Z,61.10
2019-05-29T04:48:55.854Z,60.68
2019-05-29T04:51:29.093Z,60.53
2019-05-29T04:54:01.728Z,59.69
2019-05-29T04:56:34.877Z,59.96
2019-05-29T04:59:07.184Z,59.63
2019-05-29T05:01:39.880Z,59.38
2019-05-29T05:04:12.337Z,59.77
2019-05-29T05:06:44.825Z,59.33
2019-05-29T05:09:17.324Z,59.07
2019-05-29T05:11:49.764Z,59.11
2019-05-29T05:14:22.138Z,59.15
2019-05-29T05:16:55.561Z,58.71
2019-05-29T05:19:27.816Z,57.76
2019-05-29T05:22:00.392Z,57.79
2019-05-29T05:24:34.104Z,56.50
2019-05-29T05:27:06.656Z,56.87
2019-05-29T05:29:40.422Z,54.87
2019-05-29T05:32:12.835Z,51.74
2019-05-29T05:34:45.118Z,50.73
2019-05-29T05:37:17.786Z,50.34
2019-05-29T05:39:50.259Z,50.63
2019-05-29T05:42:22.731Z,50.33
2019-05-29T05:44:54.997Z,49.99
2019-05-29T05:47:43.681Z,49.51
2019-05-29T05:50:01.279Z,49.51
2019-05-29T05:52:35.228Z,48.89
2019-05-29T05:55:07.763Z,49.18
2019-05-29T05:57:40.036Z,49.22
2019-05-29T06:00:12.971Z,49.63
2019-05-29T06:02:46.281Z,48.29
2019-05-29T06:05:18.785Z,49.25
2019-05-29T06:07:51.059Z,48.85
2019-05-29T06:10:23.838Z,48.82
2019-05-29T06:12:56.519Z,49.54
2019-05-29T06:15:29.097Z,49.27
2019-05-29T06:18:19.865Z,48.21
2019-05-29T06:20:36.742Z,48.08
2019-05-29T06:23:09.592Z,48.50
2019-05-29T06:25:43.629Z,48.25
2019-05-29T06:28:16.586Z,48.78
2019-05-29T06:30:49.166Z,47.09
2019-05-29T06:33:21.842Z,47.70
2019-05-29T06:35:54.313Z,49.62
2019-05-29T06:38:26.582Z,48.73
2019-05-29T06:40:59.174Z,48.23
2019-05-29T06:43:31.650Z,45.11
2019-05-29T06:46:03.903Z,45.42
2019-05-29T06:48:44.876Z,46.41
2019-05-29T06:51:11.664Z,45.88
2019-05-29T06:53:44.364Z,45.81
2019-05-29T06:56:17.229Z,46.07
2019-05-29T06:58:50.109Z,47.12
2019-05-29T07:01:22.855Z,47.30
2019-05-29T07:04:10.621Z,46.93
2019-05-29T07:06:29.541Z,47.00
2019-05-29T07:09:02.008Z,47.10
2019-05-29T07:11:35.311Z,46.97
2019-05-29T07:14:08.515Z,46.42
2019-05-29T07:16:49.955Z,46.48
2019-05-29T07:19:26.517Z,46.32
2019-05-29T07:21:49.499Z,46.91
2019-05-29T07:24:21.977Z,46.34
2019-05-29T07:26:55.683Z,46.17
2019-05-29T07:29:28.140Z,46.43
2019-05-29T07:32:00.738Z,46.65
2019-05-29T07:34:49.843Z,45.45
2019-05-29T07:37:06.811Z,46.35
2019-05-29T07:39:39.492Z,45.68
2019-05-29T07:42:12.893Z,46.75
2019-05-29T07:44:46.304Z,48.27
2019-05-29T07:47:18.853Z,48.67
2019-05-29T07:49:51.223Z,49.01
2019-05-29T07:52:23.701Z,49.14
2019-05-29T07:54:57.331Z,48.54
2019-05-29T07:57:30.090Z,48.57
2019-05-29T08:00:02.756Z,48.34
2019-05-29T08:02:39.182Z,48.74
2019-05-29T08:05:12.211Z,47.52
2019-05-29T08:07:45.474Z,47.79
2019-05-29T08:10:18.453Z,47.65
2019-05-29T08:12:55.310Z,46.08
2019-05-29T08:15:24.977Z,46.84
2019-05-29T08:17:57.350Z,47.11
2019-05-29T08:20:30.028Z,47.47
2019-05-29T08:23:02.712Z,47.35
2019-05-29T08:25:35.190Z,46.45
2019-05-29T08:28:07.763Z,45.86
2019-05-29T08:30:41.151Z,44.67
2019-05-29T08:33:14.386Z,43.76
2019-05-29T08:35:50.306Z,43.34
2019-05-29T08:38:21.451Z,43.33
2019-05-29T08:40:53.916Z,43.77
2019-05-29T08:43:26.099Z,42.96
2019-05-29T08:45:58.668Z,43.79
2019-05-29T08:48:31.349Z,44.35
2019-05-29T08:51:04.848Z,45.27
2019-05-29T08:53:37.785Z,45.93
2019-05-29T08:56:11.531Z,45.53
2019-05-29T08:58:44.431Z,45.43
2019-05-29T09:01:16.886Z,45.83
2019-05-29T09:03:51.192Z,46.17
2019-05-29T09:06:23.680Z,45.11
2019-05-29T09:08:56.154Z,45.39
2019-05-29T09:11:28.644Z,45.63
2019-05-29T09:14:01.310Z,44.86
2019-05-29T09:16:33.882Z,45.24
2019-05-29T09:19:06.257Z,44.19
2019-05-29T09:21:38.630Z,44.46
2019-05-29T09:24:12.793Z,44.78
2019-05-29T09:26:46.524Z,45.20
2019-05-29T09:29:22.097Z,45.38
2019-05-29T09:31:53.033Z,45.59
2019-05-29T09:34:25.812Z,45.26
2019-05-29T09:36:58.314Z,45.14
2019-05-29T09:39:30.835Z,45.28
2019-05-29T09:42:03.639Z,45.58
2019-05-29T09:44:39.372Z,45.39
2019-05-29T09:47:09.822Z,45.23
2019-05-29T09:49:42.194Z,45.57
2019-05-29T09:52:14.766Z,45.43
2019-05-29T09:54:47.291Z,45.37
2019-05-29T09:57:19.836Z,44.61
2019-05-29T09:59:55.843Z,45.70
2019-05-29T10:02:28.475Z,44.96
2019-05-29T10:05:02.636Z,45.24
2019-05-29T10:07:35.363Z,44.52
2019-05-29T10:10:12.543Z,45.45
2019-05-29T10:12:45.108Z,45.38
2019-05-29T10:15:19.532Z,44.82
2019-05-29T10:17:51.799Z,43.74
2019-05-29T10:20:24.609Z,43.76
2019-05-29T10:22:57.194Z,43.30
2019-05-29T10:25:29.735Z,43.65
2019-05-29T10:28:05.851Z,43.92
2019-05-29T10:30:36.218Z,43.57
2019-05-29T10:33:08.791Z,43.35
2019-05-29T10:35:42.470Z,43.73
2019-05-29T10:38:14.872Z,44.37
2019-05-29T10:41:00.443Z,43.58
2019-05-29T10:43:33.642Z,43.98
2019-05-29T10:45:55.471Z,44.04
2019-05-29T10:48:28.042Z,43.70
2019-05-29T10:51:00.517Z,44.21
2019-05-29T10:53:33.197Z,44.35
2019-05-29T10:56:06.082Z,43.57
2019-05-29T10:58:48.728Z,43.74
2019-05-29T11:01:12.471Z,42.12
2019-05-29T11:03:45.554Z,42.71
2019-05-29T11:06:17.827Z,42.63
2019-05-29T11:08:50.405Z,42.33
2019-05-29T11:11:22.772Z,41.03
2019-05-29T11:13:55.360Z,41.38
2019-05-29T11:16:27.815Z,40.87
2019-05-29T11:19:00.293Z,41.21
2019-05-29T11:21:32.974Z,41.51
2019-05-29T11:24:06.270Z,39.97
2019-05-29T11:26:38.940Z,40.05
2019-05-29T11:29:11.522Z,39.07
2019-05-29T11:31:43.906Z,38.10
2019-05-29T11:34:16.065Z,39.40
2019-05-29T11:36:49.892Z,40.48
2019-05-29T11:39:22.238Z,40.94
2019-05-29T11:41:54.828Z,40.85
2019-05-29T11:44:27.399Z,40.64
2019-05-29T11:46:59.768Z,40.93
2019-05-29T11:49:32.037Z,40.54
2019-05-29T11:52:22.640Z,41.13
2019-05-29T11:54:39.750Z,40.99
2019-05-29T11:57:12.221Z,39.53
2019-05-29T11:59:44.389Z,40.81
2019-05-29T12:02:17.705Z,40.66
2019-05-29T12:04:51.110Z,40.35
2019-05-29T12:07:23.550Z,40.49
2019-05-29T12:09:57.428Z,40.41
2019-05-29T12:12:29.827Z,38.21
2019-05-29T12:15:11.074Z,38.32
2019-05-29T12:17:38.818Z,39.10
2019-05-29T12:20:27.053Z,38.52
2019-05-29T12:23:11.290Z,38.71
2019-05-29T12:25:19.985Z,39.90
2019-05-29T12:27:54.882Z,40.31
2019-05-29T12:30:28.107Z,40.69
2019-05-29T12:33:01.169Z,40.85
2019-05-29T12:35:33.873Z,41.39
2019-05-29T12:38:06.658Z,40.78
2019-05-29T12:40:39.237Z,41.69
2019-05-29T12:43:25.907Z,41.19
2019-05-29T12:45:45.619Z,41.43
2019-05-29T12:48:18.086Z,41.08
2019-05-29T12:50:51.079Z,41.17
2019-05-29T12:53:30.510Z,40.94
2019-05-29T12:55:58.400Z,40.31
2019-05-29T12:58:30.854Z,39.87
2019-05-29T13:01:04.975Z,40.55
2019-05-29T13:03:37.954Z,41.43
2019-05-29T13:06:11.447Z,42.00
2019-05-29T13:08:43.924Z,41.91
2019-05-29T13:11:16.598Z,41.74
2019-05-29T13:13:49.284Z,42.47
2019-05-29T13:16:21.553Z,42.33
2019-05-29T13:18:54.833Z,42.27
2019-05-29T13:21:27.418Z,41.79
2019-05-29T13:24:02.357Z,42.31
2019-05-29T13:26:34.111Z,40.95
2019-05-29T13:29:06.901Z,40.99
2019-05-29T13:31:39.563Z,41.06
2019-05-29T13:34:12.251Z,40.88
2019-05-29T13:36:44.840Z,41.28
2019-05-29T13:39:17.244Z,41.02
2019-05-29T13:41:49.777Z,40.78
2019-05-29T13:44:22.457Z,41.29
2019-05-29T13:46:55.033Z,41.03
2019-05-29T13:49:27.303Z,41.40
2019-05-29T13:51:59.780Z,41.13
2019-05-29T13:54:33.406Z,41.55
2019-05-29T13:57:06.793Z,40.50
2019-05-29T13:59:39.962Z,40.43
2019-05-29T14:02:12.849Z,40.24
2019-05-29T14:04:45.237Z,40.80
2019-05-29T14:07:17.709Z,40.43
2019-05-29T14:09:52.114Z,40.38
2019-05-29T14:12:24.483Z,40.08
2019-05-29T14:14:56.857Z,39.44
2019-05-29T14:17:29.436Z,39.70
2019-05-29T14:20:02.686Z,40.12
2019-05-29T14:22:35.402Z,39.20
2019-05-29T14:25:09.684Z,38.84
2019-05-29T14:27:42.099Z,39.14
2019-05-29T14:30:15.338Z,38.75
2019-05-29T14:32:47.756Z,38.54
2019-05-29T14:35:20.248Z,39.00
2019-05-29T14:37:53.026Z,39.76
2019-05-29T14:40:26.005Z,40.36
2019-05-29T14:42:58.486Z,40.97
2019-05-29T14:45:30.742Z,41.40
2019-05-29T14:48:04.072Z,41.47
2019-05-29T14:50:36.510Z,41.54
2019-05-29T14:53:11.398Z,40.89
2019-05-29T14:55:44.529Z,40.84
2019-05-29T14:58:17.009Z,40.52
2019-05-29T15:00:50.810Z,40.32
2019-05-29T15:03:23.365Z,40.21
2019-05-29T15:05:55.965Z,39.51
2019-05-29T15:08:28.448Z,39.83
2019-05-29T15:11:00.913Z,39.00
2019-05-29T15:13:33.387Z,39.58
2019-05-29T15:16:06.633Z,39.31
2019-05-29T15:18:38.960Z,39.44
2019-05-29T15:21:11.426Z,39.00
2019-05-29T15:23:45.438Z,39.43
2019-05-29T15:26:18.013Z,39.48
2019-05-29T15:28:50.487Z,39.20
2019-05-29T15:31:22.966Z,39.76
2019-05-29T15:33:58.921Z,39.73
2019-05-29T15:36:31.408Z,40.10
2019-05-29T15:39:06.472Z,39.98
2019-05-29T15:41:38.802Z,40.18
2019-05-29T15:44:12.810Z,40.01
2019-05-29T15:46:45.495Z,40.75
2019-05-29T15:49:18.171Z,40.82
2019-05-29T15:51:50.742Z,41.06
2019-05-29T15:54:23.423Z,41.02
2019-05-29T15:56:55.795Z,41.42
2019-05-29T15:59:28.263Z,41.79
2019-05-29T16:02:01.070Z,41.14
2019-05-29T16:04:33.630Z,41.15
2019-05-29T16:07:06.100Z,41.37
2019-05-29T16:09:38.674Z,42.03
2019-05-29T16:12:12.720Z,42.05
2019-05-29T16:14:45.162Z,42.43
2019-05-29T16:17:17.531Z,42.46
2019-05-29T16:19:50.114Z,42.48
2019-05-29T16:22:22.798Z,42.47
2019-05-29T16:24:55.674Z,41.56
2019-05-29T16:27:30.966Z,41.25
2019-05-29T16:30:03.043Z,41.26
2019-05-29T16:32:35.552Z,40.91
2019-05-29T16:35:09.051Z,41.30
2019-05-29T16:37:41.327Z,41.20
2019-05-29T16:40:16.214Z,41.09
2019-05-29T16:42:49.134Z,41.33
2019-05-29T16:45:22.375Z,41.91
2019-05-29T16:47:54.695Z,42.51
2019-05-29T16:50:27.070Z,42.62
2019-05-29T16:52:59.936Z,43.16
2019-05-29T16:55:32.734Z,43.10
2019-05-29T16:58:05.336Z,43.54
2019-05-29T17:00:37.888Z,43.93
2019-05-29T17:03:11.393Z,43.64
2019-05-29T17:05:44.074Z,43.71
2019-05-29T17:08:16.647Z,43.87
2019-05-29T17:10:48.917Z,44.17
2019-05-29T17:13:22.442Z,44.35
2019-05-29T17:15:55.192Z,44.86
2019-05-29T17:18:29.270Z,45.21
2019-05-29T17:21:01.680Z,45.27
2019-05-29T17:23:34.337Z,45.08
2019-05-29T17:26:10.612Z,45.30
2019-05-29T17:28:41.160Z,45.86
2019-05-29T17:31:14.959Z,46.08
2019-05-29T17:34:02.054Z,46.47
2019-05-29T17:37:05.060Z,46.18
2019-05-29T17:39:37.939Z,46.83
2019-05-29T17:42:10.624Z,47.09
2019-05-29T17:44:43.199Z,47.23
2019-05-29T17:47:19.600Z,47.10
2019-05-29T17:49:52.144Z,47.17
2019-05-29T17:52:24.537Z,47.36
2019-05-29T17:54:56.963Z,47.61
2019-05-29T17:57:29.535Z,47.82
2019-05-29T18:00:01.938Z,48.01
2019-05-29T18:02:50.849Z,48.22
2019-05-29T18:05:11.687Z,48.43
2019-05-29T18:07:44.076Z,48.81
2019-05-29T18:10:20.333Z,48.82
2019-05-29T18:12:51.270Z,49.20
2019-05-29T18:15:24.060Z,49.37
2019-05-29T18:17:56.528Z,49.68
2019-05-29T18:20:29.208Z,50.07
2019-05-29T18:23:01.992Z,50.27
2019-05-29T18:25:34.259Z,50.49
2019-05-29T18:28:07.147Z,50.54
2019-05-29T18:30:40.154Z,50.89
2019-05-29T18:33:28.954Z,50.85
2019-05-29T18:36:08.935Z,51.26
2019-05-29T18:38:41.411Z,51.20
2019-05-29T18:41:14.090Z,51.55
2019-05-29T18:43:49.721Z,51.81
2019-05-29T18:46:27.269Z,52.02
2019-05-29T18:49:00.364Z,52.00
2019-05-29T18:51:33.311Z,52.42
2019-05-29T18:54:06.087Z,52.73
2019-05-29T18:56:40.513Z,52.74
2019-05-29T18:59:13.085Z,53.10
2019-05-29T19:01:45.907Z,53.11
2019-05-29T19:04:18.540Z,53.65
2019-05-29T19:06:50.926Z,53.69
2019-05-29T19:09:23.730Z,53.93
2019-05-29T19:11:56.475Z,54.11
2019-05-29T19:14:29.928Z,54.45
2019-05-29T19:17:03.266Z,54.37
2019-05-29T19:19:35.636Z,54.66
2019-05-29T19:22:08.428Z,54.94
2019-05-29T19:24:41.301Z,54.75
2019-05-29T19:27:27.982Z,55.18
2019-05-29T19:29:48.201Z,55.46
2019-05-29T19:32:20.568Z,56.07
2019-05-29T19:34:53.054Z,56.21
2019-05-29T19:37:29.935Z,56.33
2019-05-29T19:40:07.638Z,56.73
2019-05-29T19:42:41.221Z,56.39
2019-05-29T19:45:13.872Z,57.03
2019-05-29T19:47:46.384Z,56.99
2019-05-29T19:50:19.049Z,57.32
2019-05-29T19:52:51.841Z,57.33
2019-05-29T19:55:25.567Z,57.42
2019-05-29T19:57:57.913Z,57.28
2019-05-29T20:00:30.489Z,56.95
2019-05-29T20:03:03.495Z,56.98
2019-05-29T20:05:37.018Z,57.36
2019-05-29T20:08:09.341Z,57.49
2019-05-29T20:10:42.841Z,57.75
2019-05-29T20:13:16.443Z,57.68
2019-05-29T20:15:48.813Z,57.59
2019-05-29T20:18:22.719Z,57.47
2019-05-29T20:20:55.192Z,57.67
2019-05-29T20:23:28.597Z,57.62
2019-05-29T20:26:00.963Z,57.92
2019-05-29T20:28:34.270Z,58.03
2019-05-29T20:31:06.736Z,58.35
2019-05-29T20:33:39.412Z,58.45
2019-05-29T20:36:11.780Z,58.55
2019-05-29T20:38:44.359Z,58.58
2019-05-29T20:41:16.853Z,58.51
2019-05-29T20:43:50.021Z,58.71
2019-05-29T20:46:22.598Z,58.21
2019-05-29T20:48:55.072Z,57.90
2019-05-29T20:51:27.647Z,57.74
2019-05-29T20:54:00.844Z,57.82
2019-05-29T20:56:33.920Z,57.42
2019-05-29T20:59:06.297Z,57.67
2019-05-29T21:01:45.094Z,57.29
2019-05-29T21:04:14.017Z,57.08
2019-05-29T21:06:46.489Z,56.93
2019-05-29T21:09:19.294Z,56.84
2019-05-29T21:11:51.945Z,56.71
2019-05-29T21:14:24.221Z,56.51
2019-05-29T21:16:56.801Z,56.42
2019-05-29T21:19:29.060Z,56.45
2019-05-29T21:22:01.445Z,56.24
2019-05-29T21:24:34.542Z,56.14
2019-05-29T21:27:06.998Z,56.03
2019-05-29T21:29:39.270Z,56.36
2019-05-29T21:32:11.951Z,56.32
2019-05-29T21:34:44.645Z,56.43
2019-05-29T21:37:17.098Z,56.25
2019-05-29T21:39:50.287Z,56.59
2019-05-29T21:42:22.978Z,56.30
2019-05-29T21:44:55.449Z,56.42
2019-05-29T21:47:27.715Z,56.36
2019-05-29T21:50:00.185Z,56.21
2019-05-29T21:52:32.867Z,56.49
2019-05-29T21:55:07.688Z,56.81
2019-05-29T21:57:42.342Z,57.10
2019-05-29T22:00:16.538Z,57.05
2019-05-29T22:02:50.986Z,57.01
2019-05-29T22:05:23.438Z,57.42
2019-05-29T22:07:55.702Z,58.27
2019-05-29T22:10:28.276Z,58.90
2019-05-29T22:13:01.782Z,59.02
2019-05-29T22:15:34.149Z,59.18
2019-05-29T22:18:06.726Z,59.50
2019-05-29T22:20:39.308Z,59.83
2019-05-29T22:23:11.979Z,59.83
2019-05-29T22:25:44.259Z,60.01
2019-05-29T22:28:16.618Z,59.79
2019-05-29T22:30:49.194Z,59.69
2019-05-29T22:33:21.776Z,59.97
2019-05-29T22:35:55.619Z,59.95
2019-05-29T22:38:28.361Z,59.72
2019-05-29T22:41:01.990Z,60.05
2019-05-29T22:43:34.544Z,60.25
2019-05-29T22:46:07.327Z,60.39
2019-05-29T22:48:39.800Z,60.52
2019-05-29T22:51:12.382Z,60.68
2019-05-29T22:53:44.944Z,60.39
2019-05-29T22:56:17.215Z,60.25
2019-05-29T22:58:49.692Z,60.24
2019-05-29T23:01:22.071Z,60.50
2019-05-29T23:03:54.660Z,60.43
2019-05-29T23:06:27.419Z,60.58
2019-05-29T23:09:00.390Z,60.45
2019-05-29T23:11:32.685Z,60.65
2019-05-29T23:14:05.055Z,60.71
2019-05-29T23:16:37.350Z,60.64
2019-05-29T23:19:09.796Z,60.99
2019-05-29T23:21:42.167Z,60.94
2019-05-29T23:24:14.541Z,61.03
2019-05-29T23:26:46.822Z,61.52
2019-05-29T23:29:18.988Z,61.67
2019-05-29T23:31:52.738Z,61.85
2019-05-29T23:34:25.269Z,61.96
2019-05-29T23:36:57.527Z,62.15
2019-05-29T23:39:30.094Z,62.06
2019-05-29T23:42:03.638Z,62.35
2019-05-29T23:44:35.970Z,62.71
2019-05-29T23:47:08.237Z,62.86
2019-05-29T23:49:40.609Z,62.85
2019-05-29T23:52:14.515Z,62.69
2019-05-29T23:54:47.483Z,62.67
2019-05-29T23:57:19.878Z,63.05
